Lakeland, Missouri
Current Conditions -  °F | °C
As of 2:35 PM on Monday 26 Jan 2015 (Local Time) from KAIZ Reporting Station
Few Clouds Few Clouds  
Wind Chill: 54°   Ceiling: Unl
Heat Index: 54°   Visibility: 10mi
Dew Point: 34°   Wind: 13mph
Humidity: 47%   Direction: 260°W
Pressure: 29.85"   Gusts: 22mph
Location:  38.333°N, 92.5524°W
Report Text: KAIZ 262035Z AUTO 26011G19KT 10SM FEW120 12/01 A2985 RMK AO1
Loading
Personal Weather Stations






























Interactive Weather Map New forecast layout! Learn more

10-Day Weather Forecast

Advertisements
Track Severe Weather on mobile